Time;durP1;ratioP1;P1;durP2;ratioP2;P2;SDS_P1;SDS_P2;PMS_P1;PMS_P2;Temp;Humidity;BMP_temperature;BMP_pressure;BME280_temperature;BME280_humidity;BME280_pressure;Samples;Min_cycle;Max_cycle;Signal;HPM_P1;HPM_P2
2023/05/23 00:01:44;;;;;;;9.00;4.72;;;13.50;99.90;;;;;;5074474;28;20484;-64
2023/05/23 00:04:15;;;;;;;7.40;3.83;;;13.50;99.90;;;;;;5092263;28;20084;-63
2023/05/23 00:06:45;;;;;;;6.57;3.70;;;13.40;99.90;;;;;;5075255;28;20257;-64
2023/05/23 00:09:13;;;;;;;7.85;3.25;;;13.40;99.90;;;;;;5091567;28;20190;-63
2023/05/23 00:11:43;;;;;;;11.80;2.95;;;13.40;99.90;;;;;;5092536;28;20039;-63
2023/05/23 00:14:12;;;;;;;11.05;4.03;;;13.40;99.90;;;;;;5092152;28;20404;-64
2023/05/23 00:16:43;;;;;;;14.13;4.25;;;13.40;99.90;;;;;;5091631;28;20036;-63
2023/05/23 00:19:10;;;;;;;13.45;4.75;;;13.30;99.90;;;;;;5110265;28;20483;-64
2023/05/23 00:21:36;;;;;;;9.07;4.13;;;13.30;99.90;;;;;;5094623;28;20051;-64
2023/05/23 00:24:03;;;;;;;7.32;3.05;;;13.30;99.90;;;;;;5096032;28;20043;-64
2023/05/23 00:26:29;;;;;;;7.38;3.70;;;13.30;99.90;;;;;;5114131;28;20127;-65
2023/05/23 00:28:56;;;;;;;13.73;3.70;;;13.30;99.90;;;;;;5113805;28;20391;-64
2023/05/23 00:31:22;;;;;;;7.65;3.42;;;13.20;99.90;;;;;;5096133;28;20079;-63
2023/05/23 00:33:48;;;;;;;9.15;3.75;;;13.20;99.90;;;;;;5114312;28;20039;-64
2023/05/23 00:36:13;;;;;;;7.93;3.85;;;13.20;99.90;;;;;;5095015;28;20043;-63
2023/05/23 00:38:39;;;;;;;3.40;2.00;;;13.20;99.90;;;;;;5114191;28;20100;-65
2023/05/23 00:41:06;;;;;;;8.13;3.40;;;13.20;99.90;;;;;;5095889;28;20043;-64
2023/05/23 00:43:31;;;;;;;5.72;2.53;;;13.20;99.90;;;;;;5095384;28;20108;-65
2023/05/23 00:45:59;;;;;;;5.40;2.75;;;13.20;99.90;;;;;;5095710;28;20036;-62
2023/05/23 00:48:25;;;;;;;4.72;2.63;;;13.20;99.90;;;;;;5114308;28;20035;-64
2023/05/23 00:50:52;;;;;;;6.15;2.88;;;13.20;99.90;;;;;;5113119;28;20645;-64
2023/05/23 00:53:18;;;;;;;7.20;3.17;;;13.20;99.90;;;;;;5095623;28;20044;-63
2023/05/23 00:55:44;;;;;;;5.65;2.97;;;13.20;99.90;;;;;;5095440;28;20532;-63
2023/05/23 00:58:12;;;;;;;5.65;3.08;;;13.20;99.90;;;;;;5077934;28;20040;-64
2023/05/23 01:00:38;;;;;;;8.18;3.25;;;13.20;99.90;;;;;;5095263;28;20040;-65
2023/05/23 01:03:04;;;;;;;6.30;2.58;;;13.20;99.90;;;;;;5113386;28;20047;-63
2023/05/23 01:05:30;;;;;;;6.97;2.53;;;13.20;99.90;;;;;;5112725;28;20051;-63
2023/05/23 01:07:55;;;;;;;4.45;2.25;;;13.20;99.90;;;;;;5078289;28;20043;-64
2023/05/23 01:10:28;;;;;;;3.55;1.88;;;13.20;99.90;;;;;;5095356;28;20043;-63
2023/05/23 01:13:05;;;;;;;7.70;2.30;;;13.20;99.90;;;;;;5094401;28;20077;-63
2023/05/23 01:15:46;;;;;;;6.75;2.08;;;13.20;99.90;;;;;;5095137;28;20043;-63
2023/05/23 01:18:18;;;;;;;4.97;2.08;;;13.20;99.90;;;;;;5112801;28;20044;-64
2023/05/23 01:20:53;;;;;;;7.07;3.03;;;13.20;99.90;;;;;;5078246;28;20031;-63
2023/05/23 01:23:21;;;;;;;5.40;2.22;;;13.20;99.90;;;;;;5095125;28;20085;-63
2023/05/23 01:25:59;;;;;;;6.60;3.65;;;13.20;99.90;;;;;;5112614;28;20039;-65
2023/05/23 01:28:39;;;;;;;8.70;3.38;;;13.20;99.90;;;;;;5113165;28;20038;-65
2023/05/23 01:31:09;;;;;;;5.95;2.00;;;13.10;99.90;;;;;;5094442;28;20053;-64
2023/05/23 01:33:37;;;;;;;8.00;3.15;;;13.10;99.90;;;;;;5111782;28;20036;-64
2023/05/23 01:36:03;;;;;;;4.85;1.98;;;13.10;99.90;;;;;;5094947;28;20205;-63
2023/05/23 01:38:29;;;;;;;3.72;1.95;;;13.00;99.90;;;;;;5113371;28;20427;-64
2023/05/23 01:41:08;;;;;;;4.90;2.17;;;13.00;99.90;;;;;;5077109;28;20031;-63
2023/05/23 01:43:40;;;;;;;4.60;2.53;;;13.00;99.90;;;;;;5078059;28;20062;-65
2023/05/23 01:46:07;;;;;;;4.65;1.83;;;13.00;99.90;;;;;;5112457;28;20483;-65
2023/05/23 01:48:34;;;;;;;5.72;2.60;;;12.90;99.90;;;;;;5094252;28;20047;-65
2023/05/23 01:51:01;;;;;;;4.70;2.60;;;13.00;99.90;;;;;;5094334;28;20055;-63
2023/05/23 01:53:28;;;;;;;4.43;1.83;;;13.00;99.90;;;;;;5093925;28;20436;-64
2023/05/23 01:55:54;;;;;;;4.82;2.90;;;12.90;99.90;;;;;;5094252;28;20079;-64
2023/05/23 01:58:20;;;;;;;5.90;2.75;;;12.90;99.90;;;;;;5112428;28;20097;-63
2023/05/23 02:00:46;;;;;;;9.30;1.73;;;12.90;99.90;;;;;;5093841;28;20085;-64
2023/05/23 02:03:12;;;;;;;6.13;2.65;;;12.90;99.90;;;;;;5094272;28;20043;-64
2023/05/23 02:05:38;;;;;;;10.52;2.30;;;12.80;99.90;;;;;;5094307;28;20100;-64
2023/05/23 02:08:04;;;;;;;8.25;2.33;;;12.80;99.90;;;;;;5093457;28;20031;-64
2023/05/23 02:10:29;;;;;;;8.45;2.85;;;12.80;99.90;;;;;;5093982;28;20046;-64
2023/05/23 02:12:55;;;;;;;4.47;1.50;;;12.80;99.90;;;;;;5093909;28;20039;-63
2023/05/23 02:15:21;;;;;;;3.90;2.10;;;12.80;99.90;;;;;;5111951;28;20058;-65
2023/05/23 02:17:47;;;;;;;3.15;1.77;;;12.80;99.90;;;;;;5112121;28;20587;-63
2023/05/23 02:20:13;;;;;;;3.25;1.75;;;12.80;99.90;;;;;;5093875;28;20042;-64
2023/05/23 02:22:39;;;;;;;13.02;2.42;;;12.80;99.90;;;;;;5111399;28;20476;-65
2023/05/23 02:25:05;;;;;;;4.70;1.73;;;12.80;99.90;;;;;;5076747;28;20043;-65
2023/05/23 02:27:31;;;;;;;5.45;2.33;;;12.80;99.90;;;;;;5093564;28;20039;-64
2023/05/23 02:29:57;;;;;;;7.78;2.45;;;12.80;99.90;;;;;;5093190;28;20046;-64
2023/05/23 02:32:23;;;;;;;6.30;2.13;;;12.80;99.90;;;;;;5093484;28;20062;-65
2023/05/23 02:34:49;;;;;;;6.72;2.03;;;12.80;99.90;;;;;;5093366;28;20047;-64
2023/05/23 02:37:15;;;;;;;3.72;1.33;;;12.80;99.90;;;;;;5093546;28;20126;-64
2023/05/23 02:39:42;;;;;;;5.22;2.35;;;12.80;99.90;;;;;;5093157;28;20177;-64
2023/05/23 02:42:08;;;;;;;6.80;1.58;;;12.80;99.90;;;;;;5092705;28;20048;-64
2023/05/23 02:44:34;;;;;;;4.50;2.60;;;12.80;99.90;;;;;;5076579;28;20040;-65
2023/05/23 02:47:00;;;;;;;5.85;1.63;;;12.80;99.90;;;;;;5111779;28;20471;-64
2023/05/23 02:49:25;;;;;;;4.65;2.42;;;12.80;99.90;;;;;;5110570;28;20067;-64
2023/05/23 02:51:51;;;;;;;3.70;2.17;;;12.80;99.90;;;;;;5076658;28;20116;-65
2023/05/23 02:54:17;;;;;;;3.95;1.52;;;12.80;99.90;;;;;;5093004;28;20126;-66
2023/05/23 02:56:45;;;;;;;6.10;2.00;;;12.80;99.90;;;;;;5110755;28;20036;-65
2023/05/23 02:59:11;;;;;;;4.35;1.55;;;12.80;99.90;;;;;;5093010;28;20048;-64
2023/05/23 03:01:37;;;;;;;4.18;2.47;;;12.70;99.90;;;;;;5111363;28;20087;-64
2023/05/23 03:04:03;;;;;;;2.58;1.33;;;12.70;99.90;;;;;;5092312;28;20429;-65
2023/05/23 03:06:31;;;;;;;7.40;2.33;;;12.70;99.90;;;;;;5076304;28;20043;-64
2023/05/23 03:08:57;;;;;;;3.67;1.95;;;12.60;99.90;;;;;;5093076;28;20353;-64
2023/05/23 03:11:22;;;;;;;3.35;1.85;;;12.60;99.90;;;;;;5092356;28;20100;-64
2023/05/23 03:13:48;;;;;;;2.85;1.50;;;12.60;99.90;;;;;;5092864;28;20070;-65
2023/05/23 03:16:14;;;;;;;4.88;2.13;;;12.60;99.90;;;;;;5110912;28;20082;-64
2023/05/23 03:18:42;;;;;;;6.38;1.58;;;12.60;99.90;;;;;;5092082;28;20086;-64
2023/05/23 03:21:08;;;;;;;2.92;1.52;;;12.60;99.90;;;;;;5092652;28;20039;-64
2023/05/23 03:23:35;;;;;;;9.30;2.47;;;12.50;99.90;;;;;;5092005;28;20068;-64
2023/05/23 03:26:02;;;;;;;5.38;1.95;;;12.50;99.90;;;;;;5076000;28;20394;-65
2023/05/23 03:28:30;;;;;;;3.45;1.55;;;12.50;99.90;;;;;;5075927;28;20387;-64
2023/05/23 03:30:56;;;;;;;4.10;2.40;;;12.50;99.90;;;;;;5110258;28;20040;-64
2023/05/23 03:33:22;;;;;;;6.10;1.70;;;12.50;99.90;;;;;;5110582;28;20522;-63
2023/05/23 03:35:48;;;;;;;2.53;1.27;;;12.50;99.90;;;;;;5092894;28;20036;-64
2023/05/23 03:38:14;;;;;;;2.53;1.35;;;12.50;99.90;;;;;;5091710;28;20449;-64
2023/05/23 03:40:40;;;;;;;4.05;1.60;;;12.40;99.90;;;;;;5092184;28;20126;-64
2023/05/23 03:43:06;;;;;;;7.45;2.25;;;12.40;99.90;;;;;;5110869;28;20039;-65
2023/05/23 03:45:32;;;;;;;3.30;1.73;;;12.40;99.90;;;;;;5109991;28;20039;-65
2023/05/23 03:47:58;;;;;;;7.22;1.60;;;12.40;99.90;;;;;;5092225;28;20054;-64
2023/05/23 03:50:25;;;;;;;4.80;2.13;;;12.40;99.90;;;;;;5092053;28;20113;-65
2023/05/23 03:52:51;;;;;;;2.85;1.98;;;12.40;99.90;;;;;;5091717;28;20055;-65
2023/05/23 03:55:21;;;;;;;2.55;1.05;;;12.40;99.90;;;;;;5091462;28;20050;-64
2023/05/23 03:57:53;;;;;;;2.70;1.48;;;12.30;99.90;;;;;;5092105;28;20044;-66
2023/05/23 04:00:19;;;;;;;4.65;2.03;;;12.40;99.90;;;;;;5091367;28;20526;-64
2023/05/23 04:02:45;;;;;;;5.22;1.60;;;12.30;99.90;;;;;;5092072;28;20047;-64
2023/05/23 04:05:12;;;;;;;2.80;1.63;;;12.30;99.90;;;;;;5092679;28;20040;-64
2023/05/23 04:07:39;;;;;;;2.60;1.42;;;12.30;99.90;;;;;;5109849;28;20031;-64
2023/05/23 04:10:05;;;;;;;5.13;1.20;;;12.30;99.90;;;;;;5091767;28;20048;-64
2023/05/23 04:12:31;;;;;;;2.92;2.25;;;12.30;99.90;;;;;;5092106;28;20518;-65
2023/05/23 04:14:57;;;;;;;2.60;1.42;;;12.30;99.90;;;;;;5109883;28;20040;-64
2023/05/23 04:17:23;;;;;;;4.75;1.67;;;12.30;99.90;;;;;;5092200;28;20097;-65
2023/05/23 04:19:50;;;;;;;2.58;1.02;;;12.30;99.90;;;;;;5091146;28;20035;-65
2023/05/23 04:22:16;;;;;;;2.38;1.60;;;12.20;99.90;;;;;;5091900;28;20043;-64
2023/05/23 04:24:42;;;;;;;5.60;2.15;;;12.20;99.90;;;;;;5074843;28;20039;-64
2023/05/23 04:27:07;;;;;;;1.85;1.10;;;12.10;99.90;;;;;;5109636;28;20028;-65
2023/05/23 04:29:34;;;;;;;4.47;1.13;;;12.10;99.90;;;;;;5110172;28;20054;-64
2023/05/23 04:32:01;;;;;;;1.65;1.25;;;12.10;99.90;;;;;;5091805;28;20040;-66
2023/05/23 04:34:27;;;;;;;2.47;0.88;;;12.10;99.90;;;;;;5091602;28;20118;-64
2023/05/23 04:36:53;;;;;;;6.03;1.65;;;12.10;99.90;;;;;;5110187;28;20439;-65
2023/05/23 04:39:19;;;;;;;5.15;1.27;;;12.10;99.90;;;;;;5110174;28;20110;-66
2023/05/23 04:41:45;;;;;;;1.75;1.20;;;12.10;99.90;;;;;;5091110;28;20035;-65
2023/05/23 04:44:13;;;;;;;4.00;1.55;;;12.00;99.90;;;;;;5075261;28;20085;-64
2023/05/23 04:46:44;;;;;;;3.25;1.35;;;12.00;99.90;;;;;;5110099;28;20046;-64
2023/05/23 04:49:10;;;;;;;3.05;1.10;;;12.00;99.90;;;;;;5090813;28;20119;-64
2023/05/23 04:51:37;;;;;;;2.42;1.02;;;12.00;99.90;;;;;;5091994;28;20431;-64
2023/05/23 04:54:03;;;;;;;3.72;1.60;;;12.00;99.90;;;;;;5091577;28;20043;-64
2023/05/23 04:56:29;;;;;;;2.63;1.77;;;11.90;99.90;;;;;;5109313;28;20046;-65
2023/05/23 04:58:55;;;;;;;3.10;1.45;;;12.00;99.90;;;;;;5091760;28;20040;-65
2023/05/23 05:01:24;;;;;;;3.05;1.40;;;11.90;99.90;;;;;;5109756;28;20051;-65
2023/05/23 05:03:50;;;;;;;4.85;1.92;;;11.90;99.90;;;;;;5109421;28;20392;-65
2023/05/23 05:06:17;;;;;;;5.97;1.02;;;11.90;99.90;;;;;;5075929;28;20044;-64
2023/05/23 05:08:43;;;;;;;2.55;1.20;;;11.80;99.90;;;;;;5077777;28;20042;-63
2023/05/23 05:11:09;;;;;;;2.88;1.40;;;11.80;99.90;;;;;;5095344;28;20491;-64
2023/05/23 05:13:35;;;;;;;6.50;1.23;;;11.80;99.90;;;;;;5078482;28;20078;-65
2023/05/23 05:16:02;;;;;;;5.28;1.27;;;11.80;99.90;;;;;;5113010;28;20152;-63
2023/05/23 05:18:29;;;;;;;2.65;1.23;;;11.80;99.90;;;;;;5113213;28;20484;-64
2023/05/23 05:20:55;;;;;;;0.85;0.63;;;11.70;99.90;;;;;;5094906;28;20040;-67
2023/05/23 05:23:27;;;;;;;5.25;1.70;;;11.70;99.90;;;;;;5077468;28;20039;-67
2023/05/23 05:25:55;;;;;;;6.90;1.63;;;11.60;99.90;;;;;;5113418;28;20394;-67
2023/05/23 05:28:21;;;;;;;2.40;1.05;;;11.60;99.90;;;;;;5095028;28;20031;-66
2023/05/23 05:30:47;;;;;;;4.88;1.67;;;11.60;99.90;;;;;;5094405;28;20044;-66
2023/05/23 05:33:13;;;;;;;2.67;1.25;;;11.60;99.90;;;;;;5094977;28;20036;-67
2023/05/23 05:35:39;;;;;;;8.73;1.70;;;11.60;99.90;;;;;;5094852;28;20039;-67
2023/05/23 05:38:07;;;;;;;5.13;1.70;;;11.50;99.90;;;;;;5093954;28;20047;-66
2023/05/23 05:40:33;;;;;;;3.38;1.40;;;11.50;99.90;;;;;;5094513;28;20118;-66
2023/05/23 05:42:59;;;;;;;4.35;1.75;;;11.60;99.90;;;;;;5094917;28;20075;-66
2023/05/23 05:45:24;;;;;;;3.72;1.10;;;11.60;99.90;;;;;;5112296;28;20448;-66
2023/05/23 05:47:50;;;;;;;5.43;1.33;;;11.60;99.90;;;;;;5094423;28;20456;-67
2023/05/23 05:50:16;;;;;;;3.67;1.30;;;11.70;99.90;;;;;;5094190;28;20058;-65
2023/05/23 05:52:42;;;;;;;3.45;1.38;;;11.60;99.90;;;;;;5093657;28;20056;-66
2023/05/23 05:55:10;;;;;;;3.78;1.48;;;11.70;99.90;;;;;;5094236;28;20046;-66
2023/05/23 05:57:39;;;;;;;4.20;1.60;;;11.70;99.90;;;;;;5093853;28;20426;-68
2023/05/23 06:00:17;;;;;;;3.85;1.33;;;11.70;99.90;;;;;;5112665;28;20061;-66
2023/05/23 06:02:50;;;;;;;2.35;0.85;;;11.70;99.90;;;;;;5112876;28;20047;-66
2023/05/23 06:05:16;;;;;;;10.10;1.20;;;11.70;99.90;;;;;;5093621;28;20082;-68
2023/05/23 06:07:43;;;;;;;3.00;1.65;;;11.70;99.90;;;;;;5093990;28;20046;-65
2023/05/23 06:10:11;;;;;;;3.38;1.77;;;11.70;99.90;;;;;;5112783;28;20095;-65
2023/05/23 06:12:37;;;;;;;1.13;0.70;;;11.70;99.90;;;;;;5093537;28;20078;-65
2023/05/23 06:15:05;;;;;;;2.45;1.35;;;11.70;99.90;;;;;;5093986;28;20709;-67
2023/05/23 06:17:30;;;;;;;2.00;0.98;;;11.60;99.90;;;;;;5093823;28;20036;-67
2023/05/23 06:19:56;;;;;;;7.28;1.27;;;11.60;99.90;;;;;;5093160;28;20514;-66
2023/05/23 06:22:22;;;;;;;4.38;0.82;;;11.60;99.90;;;;;;5076944;28;20136;-66
2023/05/23 06:24:48;;;;;;;2.05;0.98;;;11.60;99.90;;;;;;5076899;28;20046;-66
2023/05/23 06:27:14;;;;;;;2.50;1.40;;;11.60;99.90;;;;;;5111608;28;20047;-66
2023/05/23 06:29:39;;;;;;;3.55;1.15;;;11.60;99.90;;;;;;5094275;28;20475;-68
2023/05/23 06:32:05;;;;;;;3.97;1.50;;;11.70;99.90;;;;;;5077136;28;20032;-66
2023/05/23 06:34:31;;;;;;;1.98;1.02;;;11.70;99.90;;;;;;5092968;28;20698;-66
2023/05/23 06:36:57;;;;;;;3.17;1.25;;;11.80;99.90;;;;;;5093904;28;20036;-66
2023/05/23 06:39:23;;;;;;;3.55;0.80;;;11.80;99.90;;;;;;5093786;28;20552;-67
2023/05/23 06:41:49;;;;;;;1.85;0.60;;;11.90;99.90;;;;;;5092723;28;20486;-67
2023/05/23 06:44:15;;;;;;;3.88;1.17;;;12.00;99.90;;;;;;5093357;28;20043;-67
2023/05/23 06:46:47;;;;;;;3.42;0.93;;;12.30;99.90;;;;;;5092281;28;20101;-67
2023/05/23 06:49:13;;;;;;;4.57;2.17;;;12.60;99.90;;;;;;5091906;28;20035;-66
2023/05/23 06:51:39;;;;;;;4.97;0.70;;;12.80;99.90;;;;;;5092368;28;20043;-66
2023/05/23 06:54:06;;;;;;;1.38;0.63;;;13.10;99.90;;;;;;5109760;28;20124;-67
2023/05/23 06:56:31;;;;;;;4.60;0.68;;;13.50;99.90;;;;;;5092247;28;20039;-67
2023/05/23 06:58:57;;;;;;;6.35;1.58;;;13.70;99.90;;;;;;5092448;28;20100;-66
2023/05/23 07:01:23;;;;;;;2.15;0.77;;;13.80;99.90;;;;;;5091689;28;20521;-66
2023/05/23 07:03:49;;;;;;;1.75;0.57;;;13.90;99.90;;;;;;5110611;28;20396;-66
2023/05/23 07:06:15;;;;;;;1.25;0.38;;;14.10;99.90;;;;;;5092335;28;20065;-67
2023/05/23 07:08:41;;;;;;;3.40;0.80;;;14.30;99.90;;;;;;5091370;28;20035;-66
2023/05/23 07:11:07;;;;;;;1.48;0.70;;;14.30;99.90;;;;;;5092098;28;20039;-67
2023/05/23 07:13:32;;;;;;;3.88;1.08;;;14.30;99.90;;;;;;5092176;28;20096;-69
2023/05/23 07:15:58;;;;;;;4.00;0.90;;;14.10;99.90;;;;;;5091489;28;20050;-68
2023/05/23 07:18:24;;;;;;;3.22;0.38;;;13.80;99.90;;;;;;5092040;28;20134;-68
2023/05/23 07:20:50;;;;;;;4.18;1.40;;;13.60;99.90;;;;;;5091536;28;20122;-66
2023/05/23 07:23:16;;;;;;;1.08;0.70;;;13.40;99.90;;;;;;5091387;28;20047;-67
2023/05/23 07:25:43;;;;;;;2.42;0.65;;;13.20;99.90;;;;;;5091973;28;20040;-65
2023/05/23 07:28:09;;;;;;;6.15;0.82;;;13.00;99.90;;;;;;5074961;28;20031;-67
2023/05/23 07:30:35;;;;;;;10.68;1.52;;;12.90;99.90;;;;;;5073807;28;20392;-66
2023/05/23 07:33:01;;;;;;;1.27;0.70;;;12.80;99.90;;;;;;5091923;28;20032;-67
2023/05/23 07:35:26;;;;;;;7.82;0.80;;;12.70;99.90;;;;;;5110162;28;20257;-67
2023/05/23 07:37:53;;;;;;;1.98;0.88;;;12.70;99.90;;;;;;5090940;28;20392;-67
2023/05/23 07:40:19;;;;;;;5.07;0.60;;;12.70;99.90;;;;;;5091516;28;20483;-65
2023/05/23 07:42:45;;;;;;;3.92;0.65;;;12.70;99.90;;;;;;5090874;28;20047;-67
2023/05/23 07:45:11;;;;;;;1.73;1.00;;;12.70;99.90;;;;;;5091857;28;20036;-65
2023/05/23 07:47:37;;;;;;;3.85;0.60;;;12.80;99.90;;;;;;5109809;28;20548;-68
2023/05/23 07:50:03;;;;;;;2.03;0.70;;;12.90;99.90;;;;;;5074048;28;20051;-66
2023/05/23 07:52:30;;;;;;;6.50;0.80;;;13.00;99.90;;;;;;5109868;28;20073;-66
2023/05/23 07:54:57;;;;;;;2.38;0.85;;;13.10;99.90;;;;;;5109925;28;20119;-67
2023/05/23 07:57:23;;;;;;;1.90;0.80;;;13.20;99.90;;;;;;5091186;28;20388;-65
2023/05/23 07:59:50;;;;;;;0.85;0.60;;;13.30;99.90;;;;;;5091361;28;20134;-66
2023/05/23 08:02:16;;;;;;;2.13;0.60;;;13.40;99.90;;;;;;5091505;28;20039;-65
2023/05/23 08:04:42;;;;;;;1.88;0.70;;;13.50;99.90;;;;;;5090844;28;20094;-66
2023/05/23 08:07:08;;;;;;;2.65;0.82;;;13.50;99.90;;;;;;5109463;28;20500;-66
2023/05/23 08:09:35;;;;;;;2.25;0.85;;;13.60;99.90;;;;;;5091265;28;20043;-66
2023/05/23 08:12:00;;;;;;;2.15;0.70;;;13.70;99.90;;;;;;5108619;28;20491;-67
2023/05/23 08:14:26;;;;;;;2.55;1.00;;;13.70;99.90;;;;;;5090881;28;20043;-67
2023/05/23 08:16:52;;;;;;;3.08;1.00;;;13.80;99.90;;;;;;5091181;28;20078;-67
2023/05/23 08:19:18;;;;;;;4.68;1.17;;;13.70;99.90;;;;;;5108468;28;20069;-67
2023/05/23 08:21:44;;;;;;;4.97;1.40;;;13.80;99.90;;;;;;5090803;28;20035;-67
2023/05/23 08:24:11;;;;;;;4.78;1.42;;;14.10;99.90;;;;;;5091323;28;20036;-67
2023/05/23 08:26:38;;;;;;;2.00;0.80;;;14.20;99.90;;;;;;5090329;28;20047;-67
2023/05/23 08:29:04;;;;;;;2.78;0.90;;;14.50;99.90;;;;;;5090770;28;20122;-68
2023/05/23 08:31:30;;;;;;;3.85;0.70;;;14.70;99.90;;;;;;5091060;28;20161;-67
2023/05/23 08:33:58;;;;;;;3.38;0.95;;;14.70;99.90;;;;;;5073748;28;20078;-67
2023/05/23 08:36:24;;;;;;;1.90;1.20;;;14.60;99.90;;;;;;5109219;28;20395;-67
2023/05/23 08:38:50;;;;;;;3.20;1.02;;;14.70;99.90;;;;;;5108572;28;20040;-67
2023/05/23 08:41:22;;;;;;;5.65;1.27;;;14.90;99.90;;;;;;5091607;28;20093;-67
2023/05/23 08:43:48;;;;;;;1.92;1.10;;;15.20;99.90;;;;;;5094925;28;20400;-67
2023/05/23 08:46:15;;;;;;;4.05;1.27;;;15.70;99.90;;;;;;5093971;28;20035;-67
2023/05/23 08:48:42;;;;;;;6.20;1.33;;;16.00;99.90;;;;;;5094478;28;20510;-67
2023/05/23 08:51:12;;;;;;;5.25;1.65;;;16.30;99.90;;;;;;5112607;28;20492;-68
2023/05/23 08:53:41;;;;;;;3.33;1.13;;;16.50;99.90;;;;;;5093924;28;20055;-66
2023/05/23 08:56:09;;;;;;;3.22;1.10;;;16.50;99.90;;;;;;5112979;28;20053;-66
2023/05/23 08:58:35;;;;;;;4.70;1.17;;;16.30;99.90;;;;;;5094419;28;20054;-67
2023/05/23 09:01:01;;;;;;;2.30;0.95;;;16.00;99.90;;;;;;5093904;28;20039;-67
2023/05/23 09:03:28;;;;;;;1.13;0.50;;;16.10;99.90;;;;;;5107745;28;20083;-67
2023/05/23 09:05:55;;;;;;;5.45;0.95;;;16.40;99.90;;;;;;5094357;28;20043;-67
2023/05/23 09:08:23;;;;;;;2.80;0.88;;;16.80;99.90;;;;;;5111881;28;20036;-67
2023/05/23 09:10:49;;;;;;;3.03;1.13;;;17.20;99.90;;;;;;5094784;28;20574;-66
2023/05/23 09:13:16;;;;;;;5.15;0.80;;;17.30;99.90;;;;;;5113192;28;20511;-67
2023/05/23 09:16:00;;;;;;;4.65;1.02;;;17.10;99.90;;;;;;5108030;28;20101;-66
2023/05/23 09:18:27;;;;;;;6.68;1.25;;;17.10;99.90;;;;;;5090317;28;20047;-67
2023/05/23 09:20:53;;;;;;;4.65;0.73;;;17.40;99.90;;;;;;5093792;28;20070;-68
2023/05/23 09:23:19;;;;;;;1.92;0.60;;;17.30;99.90;;;;;;5078285;28;20071;-66
2023/05/23 09:25:46;;;;;;;2.55;1.15;;;17.10;99.90;;;;;;5113626;28;20036;-67
2023/05/23 09:28:12;;;;;;;6.53;1.08;;;17.10;99.90;;;;;;5112025;28;20304;-68
2023/05/23 09:30:39;;;;;;;1.10;1.00;;;17.20;99.90;;;;;;5094233;28;20511;-69
2023/05/23 09:33:15;;;;;;;1.67;0.60;;;17.30;99.90;;;;;;5111991;28;20067;-68
2023/05/23 09:35:46;;;;;;;3.97;0.82;;;17.50;99.90;;;;;;5092680;28;20404;-67
2023/05/23 09:38:18;;;;;;;1.92;0.55;;;17.90;99.90;;;;;;5093636;28;20035;-69
2023/05/23 09:40:47;;;;;;;3.03;0.85;;;18.30;99.90;;;;;;5093715;28;20086;-67
2023/05/23 09:43:17;;;;;;;1.60;0.90;;;18.40;99.90;;;;;;5111306;28;20038;-67
2023/05/23 09:45:46;;;;;;;3.63;0.80;;;18.10;99.90;;;;;;5111725;28;20112;-67
2023/05/23 09:48:12;;;;;;;2.70;0.77;;;17.80;99.90;;;;;;5111628;28;20069;-68
2023/05/23 09:50:40;;;;;;;3.15;0.60;;;17.90;99.90;;;;;;5092794;28;20056;-67
2023/05/23 09:53:07;;;;;;;6.07;1.23;;;18.00;99.90;;;;;;5076090;28;20127;-67
2023/05/23 09:55:40;;;;;;;1.83;0.70;;;17.80;99.90;;;;;;5092856;28;20047;-68
2023/05/23 09:58:12;;;;;;;2.88;0.52;;;17.70;99.90;;;;;;5111024;28;20416;-66
2023/05/23 10:00:39;;;;;;;4.03;0.98;;;17.80;99.90;;;;;;5093290;28;20115;-67
2023/05/23 10:03:16;;;;;;;2.38;0.60;;;18.10;99.90;;;;;;5110719;28;20039;-68
2023/05/23 10:05:52;;;;;;;2.45;0.35;;;18.40;99.90;;;;;;5111526;28;20093;-68
2023/05/23 10:08:32;;;;;;;2.88;0.73;;;18.40;99.90;;;;;;5111245;28;20040;-68
2023/05/23 10:11:35;;;;;;;3.40;0.50;;;18.00;99.90;;;;;;5092447;28;20065;-67
2023/05/23 10:14:06;;;;;;;7.25;0.98;;;17.70;99.90;;;;;;5075861;28;20054;-67
2023/05/23 10:17:03;;;;;;;2.58;0.70;;;17.60;99.90;;;;;;5093101;28;20055;-67
2023/05/23 10:19:44;;;;;;;4.75;1.08;;;17.40;99.90;;;;;;5076199;28;20086;-70
2023/05/23 10:22:12;;;;;;;1.45;0.70;;;17.30;99.90;;;;;;5111307;28;20044;-67
2023/05/23 10:24:39;;;;;;;1.23;0.57;;;17.20;99.90;;;;;;5092074;28;20036;-67
2023/05/23 10:27:06;;;;;;;2.38;1.20;;;16.90;99.90;;;;;;5111385;28;20348;-68
2023/05/23 10:29:32;;;;;;;3.72;1.08;;;16.60;99.90;;;;;;5110866;28;20043;-69
2023/05/23 10:32:01;;;;;;;3.63;0.98;;;16.70;99.90;;;;;;5091902;28;20043;-67
2023/05/23 10:34:31;;;;;;;4.13;1.05;;;16.90;99.90;;;;;;5076198;28;20452;-68
2023/05/23 10:37:11;;;;;;;1.20;0.60;;;16.80;99.90;;;;;;5092523;28;20047;-68
2023/05/23 10:39:59;;;;;;;1.50;0.30;;;16.60;99.90;;;;;;5109968;28;20079;-66
2023/05/23 10:42:53;;;;;;;0.70;0.40;;;16.20;99.90;;;;;;5075656;28;20503;-68
2023/05/23 10:45:20;;;;;;;2.33;1.27;;;15.90;99.90;;;;;;5091646;28;20042;-66
2023/05/23 10:47:51;;;;;;;2.10;0.90;;;16.20;99.90;;;;;;5092521;28;20040;-67
2023/05/23 10:50:36;;;;;;;1.02;0.43;;;16.40;99.90;;;;;;5110288;28;20087;-68
2023/05/23 10:53:03;;;;;;;2.72;0.82;;;16.30;99.90;;;;;;5091768;28;20143;-67
2023/05/23 10:55:35;;;;;;;1.48;0.90;;;16.10;99.90;;;;;;5111413;28;20480;-68
2023/05/23 10:58:15;;;;;;;1.60;0.50;;;16.00;99.90;;;;;;5093017;28;20046;-67
2023/05/23 11:00:53;;;;;;;2.63;0.60;;;16.00;99.90;;;;;;5110492;28;20476;-68
2023/05/23 11:03:37;;;;;;;1.83;0.80;;;16.10;99.90;;;;;;5075531;28;20063;-68
2023/05/23 11:06:04;;;;;;;3.75;0.88;;;16.20;99.90;;;;;;5074240;28;20036;-69
2023/05/23 11:08:40;;;;;;;4.28;1.08;;;16.20;99.90;;;;;;5092300;28;20522;-68
2023/05/23 11:11:07;;;;;;;1.88;1.02;;;16.40;99.90;;;;;;5111227;28;20043;-67
2023/05/23 11:13:58;;;;;;;2.25;0.63;;;16.80;99.90;;;;;;5092149;28;20039;-67
2023/05/23 11:16:41;;;;;;;2.60;0.85;;;17.10;99.90;;;;;;5076079;28;20396;-67
2023/05/23 11:19:21;;;;;;;1.20;0.60;;;16.90;99.90;;;;;;5093244;28;20047;-68
2023/05/23 11:21:55;;;;;;;2.05;0.57;;;16.60;99.90;;;;;;5110433;28;20046;-68
2023/05/23 11:24:21;;;;;;;1.80;1.00;;;16.30;99.90;;;;;;5110508;28;20040;-68
2023/05/23 11:26:59;;;;;;;1.23;0.70;;;16.30;99.90;;;;;;5109853;28;20081;-68
2023/05/23 11:29:28;;;;;;;2.17;0.57;;;16.50;99.90;;;;;;5092384;28;20039;-68
2023/05/23 11:31:55;;;;;;;3.72;1.25;;;16.50;99.90;;;;;;5091699;28;20081;-68
2023/05/23 11:34:24;;;;;;;1.40;0.50;;;16.40;99.90;;;;;;5091353;28;20040;-68
2023/05/23 11:36:54;;;;;;;4.00;0.85;;;16.30;99.90;;;;;;5092041;28;20039;-67
2023/05/23 11:39:20;;;;;;;1.80;0.63;;;16.20;99.90;;;;;;5091563;28;20507;-68
2023/05/23 11:42:06;;;;;;;1.20;0.55;;;16.20;99.90;;;;;;5109628;28;20044;-67
2023/05/23 11:44:32;;;;;;;2.60;1.05;;;16.10;99.90;;;;;;5109632;28;20055;-65
2023/05/23 11:47:06;;;;;;;0.75;0.47;;;16.00;99.90;;;;;;5092171;28;20127;-65
2023/05/23 11:49:39;;;;;;;5.75;1.42;;;15.90;99.90;;;;;;5109824;28;20058;-66
2023/05/23 11:52:06;;;;;;;1.50;0.80;;;15.80;99.90;;;;;;5110021;28;20144;-66
2023/05/23 11:54:32;;;;;;;1.10;0.68;;;16.00;99.90;;;;;;5075447;28;20043;-66
2023/05/23 11:56:59;;;;;;;6.82;1.38;;;16.30;99.90;;;;;;5110583;28;20368;-65
2023/05/23 11:59:25;;;;;;;1.02;0.52;;;16.40;99.90;;;;;;5110147;28;20105;-66
2023/05/23 12:01:55;;;;;;;1.95;0.90;;;16.40;99.90;;;;;;5090761;28;20126;-66
2023/05/23 12:04:21;;;;;;;5.47;0.80;;;16.30;99.90;;;;;;5091806;28;20361;-65
2023/05/23 12:06:48;;;;;;;4.82;0.60;;;16.50;99.90;;;;;;5109713;28;20035;-66
2023/05/23 12:09:14;;;;;;;1.45;1.02;;;16.70;99.90;;;;;;5074470;28;20079;-65
2023/05/23 12:11:41;;;;;;;1.98;0.52;;;16.80;99.90;;;;;;5109752;28;20549;-65
2023/05/23 12:14:08;;;;;;;1.98;0.85;;;16.90;99.90;;;;;;5074697;28;20046;-64
2023/05/23 12:16:35;;;;;;;4.70;0.75;;;17.10;99.90;;;;;;5090380;28;20123;-65
2023/05/23 12:19:02;;;;;;;2.72;0.60;;;17.20;99.90;;;;;;5091719;28;20105;-65
2023/05/23 12:21:47;;;;;;;3.60;0.70;;;16.90;99.90;;;;;;5109606;28;20462;-65
2023/05/23 12:24:23;;;;;;;1.85;0.88;;;16.80;99.90;;;;;;5074026;28;20483;-64
2023/05/23 12:26:50;;;;;;;4.38;0.85;;;16.60;99.90;;;;;;5110088;28;20056;-65
2023/05/23 12:29:19;;;;;;;1.95;0.55;;;16.30;99.90;;;;;;5109372;28;20499;-64
2023/05/23 12:31:48;;;;;;;1.67;0.70;;;16.00;99.90;;;;;;5091006;28;20079;-65
2023/05/23 12:34:14;;;;;;;4.88;0.80;;;15.90;99.90;;;;;;5074640;28;20049;-65
2023/05/23 12:36:41;;;;;;;2.55;0.55;;;16.00;99.90;;;;;;5109136;28;20111;-65
2023/05/23 12:39:08;;;;;;;0.95;0.43;;;16.20;99.90;;;;;;5091325;28;20043;-64
2023/05/23 12:41:34;;;;;;;0.55;0.45;;;16.50;99.90;;;;;;5091395;28;20101;-66
2023/05/23 12:44:01;;;;;;;3.80;0.55;;;16.90;99.90;;;;;;5074042;28;20392;-64
2023/05/23 12:46:27;;;;;;;4.85;0.82;;;17.10;99.90;;;;;;5091500;28;20420;-64
2023/05/23 12:48:53;;;;;;;7.30;1.10;;;17.00;99.90;;;;;;5091320;28;20126;-63
2023/05/23 12:51:20;;;;;;;2.53;0.70;;;16.90;99.90;;;;;;5108770;28;20061;-63